sensor_id;sensor_type;location;lat;lon;timestamp;temperature;humidity
24436;DHT22;12616;52.470;13.436;2023-03-14T00:00:26;11.90;1.00
24436;DHT22;12616;52.470;13.436;2023-03-14T00:02:53;11.80;1.00
24436;DHT22;12616;52.470;13.436;2023-03-14T00:05:19;11.80;1.00
24436;DHT22;12616;52.470;13.436;2023-03-14T00:07:48;11.80;1.00
24436;DHT22;12616;52.470;13.436;2023-03-14T00:10:15;11.90;1.00
24436;DHT22;12616;52.470;13.436;2023-03-14T00:12:43;11.70;1.00
24436;DHT22;12616;52.470;13.436;2023-03-14T00:15:11;11.80;1.00
24436;DHT22;12616;52.470;13.436;2023-03-14T00:17:38;11.70;1.00
24436;DHT22;12616;52.470;13.436;2023-03-14T00:20:06;11.70;1.00
24436;DHT22;12616;52.470;13.436;2023-03-14T00:22:35;11.60;1.00
24436;DHT22;12616;52.470;13.436;2023-03-14T00:25:04;11.60;1.00
24436;DHT22;12616;52.470;13.436;2023-03-14T00:27:31;11.60;1.00
24436;DHT22;12616;52.470;13.436;2023-03-14T00:29:58;11.60;1.00
24436;DHT22;12616;52.470;13.436;2023-03-14T00:32:25;11.80;71.80
24436;DHT22;12616;52.470;13.436;2023-03-14T00:34:52;11.60;1.00
24436;DHT22;12616;52.470;13.436;2023-03-14T00:37:19;11.30;99.90
24436;DHT22;12616;52.470;13.436;2023-03-14T00:39:45;11.50;25.90
24436;DHT22;12616;52.470;13.436;2023-03-14T00:42:14;11.50;49.90
24436;DHT22;12616;52.470;13.436;2023-03-14T00:44:41;11.50;78.60
24436;DHT22;12616;52.470;13.436;2023-03-14T00:47:08;11.50;92.10
24436;DHT22;12616;52.470;13.436;2023-03-14T00:49:34;11.40;99.90
24436;DHT22;12616;52.470;13.436;2023-03-14T00:52:01;11.40;99.90
24436;DHT22;12616;52.470;13.436;2023-03-14T00:54:28;11.40;99.90
24436;DHT22;12616;52.470;13.436;2023-03-14T00:56:56;11.40;99.90
24436;DHT22;12616;52.470;13.436;2023-03-14T00:59:24;11.40;99.90
24436;DHT22;12616;52.470;13.436;2023-03-14T01:01:50;11.30;99.90
24436;DHT22;12616;52.470;13.436;2023-03-14T01:04:19;11.30;99.90
24436;DHT22;12616;52.470;13.436;2023-03-14T01:06:46;11.30;99.90
24436;DHT22;12616;52.470;13.436;2023-03-14T01:09:13;11.20;99.90
24436;DHT22;12616;52.470;13.436;2023-03-14T01:11:41;11.20;99.90
24436;DHT22;12616;52.470;13.436;2023-03-14T01:14:11;11.20;99.90
24436;DHT22;12616;52.470;13.436;2023-03-14T01:16:40;11.10;99.90
24436;DHT22;12616;52.470;13.436;2023-03-14T01:19:07;11.10;99.90
24436;DHT22;12616;52.470;13.436;2023-03-14T01:21:34;11.10;99.90
24436;DHT22;12616;52.470;13.436;2023-03-14T01:24:03;11.10;99.90
24436;DHT22;12616;52.470;13.436;2023-03-14T01:26:32;11.10;99.90
24436;DHT22;12616;52.470;13.436;2023-03-14T01:28:59;11.10;99.90
24436;DHT22;12616;52.470;13.436;2023-03-14T01:31:27;11.20;99.90
24436;DHT22;12616;52.470;13.436;2023-03-14T01:33:55;11.10;99.90
24436;DHT22;12616;52.470;13.436;2023-03-14T01:36:22;11.20;99.90
24436;DHT22;12616;52.470;13.436;2023-03-14T01:38:49;11.20;99.90
24436;DHT22;12616;52.470;13.436;2023-03-14T01:41:17;11.20;99.90
24436;DHT22;12616;52.470;13.436;2023-03-14T01:43:45;11.20;99.90
24436;DHT22;12616;52.470;13.436;2023-03-14T01:46:26;11.30;99.90
24436;DHT22;12616;52.470;13.436;2023-03-14T01:49:04;11.30;99.90
24436;DHT22;12616;52.470;13.436;2023-03-14T01:51:36;11.30;99.90
24436;DHT22;12616;52.470;13.436;2023-03-14T01:54:13;11.30;99.90
24436;DHT22;12616;52.470;13.436;2023-03-14T01:56:42;11.60;99.90
24436;DHT22;12616;52.470;13.436;2023-03-14T01:59:11;11.30;99.90
24436;DHT22;12616;52.470;13.436;2023-03-14T02:01:38;11.30;99.90
24436;DHT22;12616;52.470;13.436;2023-03-14T02:04:09;11.30;99.90
24436;DHT22;12616;52.470;13.436;2023-03-14T02:06:43;11.20;99.90
24436;DHT22;12616;52.470;13.436;2023-03-14T02:09:11;11.20;99.90
24436;DHT22;12616;52.470;13.436;2023-03-14T02:11:38;11.20;99.90
24436;DHT22;12616;52.470;13.436;2023-03-14T02:14:05;11.20;99.90
24436;DHT22;12616;52.470;13.436;2023-03-14T02:16:34;11.10;99.90
24436;DHT22;12616;52.470;13.436;2023-03-14T02:19:03;11.10;99.90
24436;DHT22;12616;52.470;13.436;2023-03-14T02:21:44;11.00;99.90
24436;DHT22;12616;52.470;13.436;2023-03-14T02:24:19;11.00;99.90
24436;DHT22;12616;52.470;13.436;2023-03-14T02:27:06;11.00;99.90
24436;DHT22;12616;52.470;13.436;2023-03-14T02:29:36;11.00;99.90
24436;DHT22;12616;52.470;13.436;2023-03-14T02:32:04;11.00;99.90
24436;DHT22;12616;52.470;13.436;2023-03-14T02:34:31;11.00;99.90
24436;DHT22;12616;52.470;13.436;2023-03-14T02:37:00;11.00;99.90
24436;DHT22;12616;52.470;13.436;2023-03-14T02:39:35;11.00;99.90
24436;DHT22;12616;52.470;13.436;2023-03-14T02:42:03;11.00;99.90
24436;DHT22;12616;52.470;13.436;2023-03-14T02:44:30;11.00;99.90
24436;DHT22;12616;52.470;13.436;2023-03-14T02:46:57;11.10;99.90
24436;DHT22;12616;52.470;13.436;2023-03-14T02:49:26;11.10;99.90
24436;DHT22;12616;52.470;13.436;2023-03-14T02:51:53;11.10;99.90
24436;DHT22;12616;52.470;13.436;2023-03-14T02:54:20;11.20;99.90
24436;DHT22;12616;52.470;13.436;2023-03-14T02:56:47;11.10;99.90
24436;DHT22;12616;52.470;13.436;2023-03-14T02:59:15;11.10;99.90
24436;DHT22;12616;52.470;13.436;2023-03-14T03:01:42;11.10;99.90
24436;DHT22;12616;52.470;13.436;2023-03-14T03:04:09;11.00;99.90
24436;DHT22;12616;52.470;13.436;2023-03-14T03:06:36;11.00;99.90
24436;DHT22;12616;52.470;13.436;2023-03-14T03:09:03;11.00;99.90
24436;DHT22;12616;52.470;13.436;2023-03-14T03:11:30;11.00;99.90
24436;DHT22;12616;52.470;13.436;2023-03-14T03:13:57;10.90;99.90
24436;DHT22;12616;52.470;13.436;2023-03-14T03:16:25;11.00;99.90
24436;DHT22;12616;52.470;13.436;2023-03-14T03:18:52;11.00;99.90
24436;DHT22;12616;52.470;13.436;2023-03-14T03:21:19;11.00;99.90
24436;DHT22;12616;52.470;13.436;2023-03-14T03:23:48;11.10;99.90
24436;DHT22;12616;52.470;13.436;2023-03-14T03:26:15;10.90;99.90
24436;DHT22;12616;52.470;13.436;2023-03-14T03:28:42;10.80;99.90
24436;DHT22;12616;52.470;13.436;2023-03-14T03:31:10;10.90;99.90
24436;DHT22;12616;52.470;13.436;2023-03-14T03:33:39;10.90;99.90
24436;DHT22;12616;52.470;13.436;2023-03-14T03:36:07;10.70;99.90
24436;DHT22;12616;52.470;13.436;2023-03-14T03:38:35;10.90;99.90
24436;DHT22;12616;52.470;13.436;2023-03-14T03:41:04;10.90;99.90
24436;DHT22;12616;52.470;13.436;2023-03-14T03:43:31;10.90;99.90
24436;DHT22;12616;52.470;13.436;2023-03-14T03:45:58;10.90;99.90
24436;DHT22;12616;52.470;13.436;2023-03-14T03:48:24;10.80;99.90
24436;DHT22;12616;52.470;13.436;2023-03-14T03:50:53;10.80;99.90
24436;DHT22;12616;52.470;13.436;2023-03-14T03:53:19;10.80;99.90
24436;DHT22;12616;52.470;13.436;2023-03-14T03:55:46;10.70;99.90
24436;DHT22;12616;52.470;13.436;2023-03-14T03:58:13;10.70;99.90
24436;DHT22;12616;52.470;13.436;2023-03-14T04:00:41;10.70;99.90
24436;DHT22;12616;52.470;13.436;2023-03-14T04:03:07;10.70;99.90
24436;DHT22;12616;52.470;13.436;2023-03-14T04:05:34;10.70;99.90
24436;DHT22;12616;52.470;13.436;2023-03-14T04:08:03;10.70;99.90
24436;DHT22;12616;52.470;13.436;2023-03-14T04:10:34;10.50;99.90
24436;DHT22;12616;52.470;13.436;2023-03-14T04:13:00;10.70;99.90
24436;DHT22;12616;52.470;13.436;2023-03-14T04:15:27;10.70;99.90
24436;DHT22;12616;52.470;13.436;2023-03-14T04:17:56;10.60;99.90
24436;DHT22;12616;52.470;13.436;2023-03-14T04:20:23;10.60;99.90
24436;DHT22;12616;52.470;13.436;2023-03-14T04:22:50;10.70;99.90
24436;DHT22;12616;52.470;13.436;2023-03-14T04:25:18;10.60;99.90
24436;DHT22;12616;52.470;13.436;2023-03-14T04:27:46;10.60;99.90
24436;DHT22;12616;52.470;13.436;2023-03-14T04:30:13;10.60;99.90
24436;DHT22;12616;52.470;13.436;2023-03-14T04:35:07;10.00;99.90
24436;DHT22;12616;52.470;13.436;2023-03-14T04:37:34;10.60;99.90
24436;DHT22;12616;52.470;13.436;2023-03-14T04:40:02;10.60;99.90
24436;DHT22;12616;52.470;13.436;2023-03-14T04:42:33;10.60;99.90
24436;DHT22;12616;52.470;13.436;2023-03-14T04:44:59;10.60;99.90
24436;DHT22;12616;52.470;13.436;2023-03-14T04:47:26;10.60;99.90
24436;DHT22;12616;52.470;13.436;2023-03-14T04:49:53;10.60;99.90
24436;DHT22;12616;52.470;13.436;2023-03-14T04:52:20;10.60;99.90
24436;DHT22;12616;52.470;13.436;2023-03-14T04:54:47;10.60;99.90
24436;DHT22;12616;52.470;13.436;2023-03-14T04:57:14;10.60;99.90
24436;DHT22;12616;52.470;13.436;2023-03-14T04:59:42;10.60;99.90
24436;DHT22;12616;52.470;13.436;2023-03-14T05:02:09;10.50;99.90
24436;DHT22;12616;52.470;13.436;2023-03-14T05:04:36;10.60;99.90
24436;DHT22;12616;52.470;13.436;2023-03-14T05:07:03;10.50;99.90
24436;DHT22;12616;52.470;13.436;2023-03-14T05:09:29;10.50;99.90
24436;DHT22;12616;52.470;13.436;2023-03-14T05:11:56;10.60;99.90
24436;DHT22;12616;52.470;13.436;2023-03-14T05:14:23;10.60;99.90
24436;DHT22;12616;52.470;13.436;2023-03-14T05:16:51;10.60;95.60
24436;DHT22;12616;52.470;13.436;2023-03-14T05:19:18;10.60;64.70
24436;DHT22;12616;52.470;13.436;2023-03-14T05:21:45;10.60;63.50
24436;DHT22;12616;52.470;13.436;2023-03-14T05:24:12;10.60;40.00
24436;DHT22;12616;52.470;13.436;2023-03-14T05:26:39;10.60;23.10
24436;DHT22;12616;52.470;13.436;2023-03-14T05:29:06;10.60;1.00
24436;DHT22;12616;52.470;13.436;2023-03-14T05:31:32;10.60;1.00
24436;DHT22;12616;52.470;13.436;2023-03-14T05:34:00;10.60;1.00
24436;DHT22;12616;52.470;13.436;2023-03-14T05:36:27;10.70;1.00
24436;DHT22;12616;52.470;13.436;2023-03-14T05:38:54;10.70;1.00
24436;DHT22;12616;52.470;13.436;2023-03-14T05:41:21;10.70;1.00
24436;DHT22;12616;52.470;13.436;2023-03-14T05:43:49;10.60;1.00
24436;DHT22;12616;52.470;13.436;2023-03-14T05:46:16;10.80;1.00
24436;DHT22;12616;52.470;13.436;2023-03-14T05:48:43;10.70;1.00
24436;DHT22;12616;52.470;13.436;2023-03-14T05:51:11;10.70;1.00
24436;DHT22;12616;52.470;13.436;2023-03-14T05:53:38;10.70;1.00
24436;DHT22;12616;52.470;13.436;2023-03-14T05:56:05;10.70;1.00
24436;DHT22;12616;52.470;13.436;2023-03-14T05:58:32;10.80;1.00
24436;DHT22;12616;52.470;13.436;2023-03-14T06:01:01;10.80;1.00
24436;DHT22;12616;52.470;13.436;2023-03-14T06:03:28;10.50;1.00
24436;DHT22;12616;52.470;13.436;2023-03-14T06:05:55;10.80;1.00
24436;DHT22;12616;52.470;13.436;2023-03-14T06:08:23;10.80;1.00
24436;DHT22;12616;52.470;13.436;2023-03-14T06:10:50;10.80;1.00
24436;DHT22;12616;52.470;13.436;2023-03-14T06:13:17;10.90;99.90
24436;DHT22;12616;52.470;13.436;2023-03-14T06:15:44;10.90;99.90
24436;DHT22;12616;52.470;13.436;2023-03-14T06:18:11;11.10;99.90
24436;DHT22;12616;52.470;13.436;2023-03-14T06:20:39;11.10;99.90
24436;DHT22;12616;52.470;13.436;2023-03-14T06:23:06;11.00;99.90
24436;DHT22;12616;52.470;13.436;2023-03-14T06:25:35;11.00;99.90
24436;DHT22;12616;52.470;13.436;2023-03-14T06:28:03;11.00;99.90
24436;DHT22;12616;52.470;13.436;2023-03-14T06:30:30;11.10;99.90
24436;DHT22;12616;52.470;13.436;2023-03-14T06:32:56;11.30;99.90
24436;DHT22;12616;52.470;13.436;2023-03-14T06:35:23;11.00;99.90
24436;DHT22;12616;52.470;13.436;2023-03-14T06:37:50;11.10;99.90
24436;DHT22;12616;52.470;13.436;2023-03-14T06:40:17;11.10;99.90
24436;DHT22;12616;52.470;13.436;2023-03-14T06:42:45;11.40;99.90
24436;DHT22;12616;52.470;13.436;2023-03-14T06:45:12;11.20;57.50
24436;DHT22;12616;52.470;13.436;2023-03-14T06:47:39;11.30;35.00
24436;DHT22;12616;52.470;13.436;2023-03-14T06:50:07;11.30;24.60
24436;DHT22;12616;52.470;13.436;2023-03-14T06:52:35;11.30;14.60
24436;DHT22;12616;52.470;13.436;2023-03-14T06:55:02;11.30;2.60
24436;DHT22;12616;52.470;13.436;2023-03-14T06:57:29;11.30;1.60
24436;DHT22;12616;52.470;13.436;2023-03-14T06:59:57;11.30;1.00
24436;DHT22;12616;52.470;13.436;2023-03-14T07:02:24;11.30;1.00
24436;DHT22;12616;52.470;13.436;2023-03-14T07:04:50;11.30;1.00
24436;DHT22;12616;52.470;13.436;2023-03-14T07:07:17;11.30;1.00
24436;DHT22;12616;52.470;13.436;2023-03-14T07:09:44;11.40;1.00
24436;DHT22;12616;52.470;13.436;2023-03-14T07:12:11;11.50;1.00
24436;DHT22;12616;52.470;13.436;2023-03-14T07:14:37;11.50;1.00
24436;DHT22;12616;52.470;13.436;2023-03-14T07:17:06;11.50;1.00
24436;DHT22;12616;52.470;13.436;2023-03-14T07:19:32;11.50;1.00
24436;DHT22;12616;52.470;13.436;2023-03-14T07:21:59;11.50;99.90
24436;DHT22;12616;52.470;13.436;2023-03-14T07:24:26;11.50;99.90
24436;DHT22;12616;52.470;13.436;2023-03-14T07:26:53;11.50;1.00
24436;DHT22;12616;52.470;13.436;2023-03-14T07:29:20;11.50;1.00
24436;DHT22;12616;52.470;13.436;2023-03-14T07:31:47;11.50;14.30
24436;DHT22;12616;52.470;13.436;2023-03-14T07:34:15;11.50;48.50
24436;DHT22;12616;52.470;13.436;2023-03-14T07:36:42;11.50;24.30
24436;DHT22;12616;52.470;13.436;2023-03-14T07:39:09;11.50;1.00
24436;DHT22;12616;52.470;13.436;2023-03-14T07:41:36;11.50;1.00
24436;DHT22;12616;52.470;13.436;2023-03-14T07:44:02;11.50;1.00
24436;DHT22;12616;52.470;13.436;2023-03-14T07:46:29;11.60;1.00
24436;DHT22;12616;52.470;13.436;2023-03-14T07:48:56;11.50;1.00
24436;DHT22;12616;52.470;13.436;2023-03-14T07:51:24;11.50;1.00
24436;DHT22;12616;52.470;13.436;2023-03-14T07:53:51;11.40;1.00
24436;DHT22;12616;52.470;13.436;2023-03-14T07:56:18;11.40;1.00
24436;DHT22;12616;52.470;13.436;2023-03-14T07:58:44;11.50;1.00
24436;DHT22;12616;52.470;13.436;2023-03-14T08:01:11;11.50;1.00
24436;DHT22;12616;52.470;13.436;2023-03-14T08:03:38;11.60;1.00
24436;DHT22;12616;52.470;13.436;2023-03-14T08:06:05;11.60;99.90
24436;DHT22;12616;52.470;13.436;2023-03-14T08:08:34;11.80;99.90
24436;DHT22;12616;52.470;13.436;2023-03-14T08:11:04;11.80;99.90
24436;DHT22;12616;52.470;13.436;2023-03-14T08:13:31;12.00;99.90
24436;DHT22;12616;52.470;13.436;2023-03-14T08:15:58;12.00;88.90
24436;DHT22;12616;52.470;13.436;2023-03-14T08:18:25;12.00;94.00
24436;DHT22;12616;52.470;13.436;2023-03-14T08:23:19;12.10;1.00
24436;DHT22;12616;52.470;13.436;2023-03-14T08:25:48;12.10;1.00
24436;DHT22;12616;52.470;13.436;2023-03-14T08:28:16;12.20;1.00
24436;DHT22;12616;52.470;13.436;2023-03-14T08:30:43;12.10;99.90
24436;DHT22;12616;52.470;13.436;2023-03-14T08:33:10;12.20;92.30
24436;DHT22;12616;52.470;13.436;2023-03-14T08:35:37;12.20;1.00
24436;DHT22;12616;52.470;13.436;2023-03-14T08:38:04;12.10;1.00
24436;DHT22;12616;52.470;13.436;2023-03-14T08:40:31;12.10;83.80
24436;DHT22;12616;52.470;13.436;2023-03-14T08:43:01;12.20;99.90
24436;DHT22;12616;52.470;13.436;2023-03-14T08:45:27;12.10;1.00
24436;DHT22;12616;52.470;13.436;2023-03-14T08:47:54;12.10;99.90
24436;DHT22;12616;52.470;13.436;2023-03-14T08:50:21;12.30;30.40
24436;DHT22;12616;52.470;13.436;2023-03-14T08:52:49;12.10;77.80
24436;DHT22;12616;52.470;13.436;2023-03-14T08:55:16;12.30;1.00
24436;DHT22;12616;52.470;13.436;2023-03-14T08:57:43;12.30;1.00
24436;DHT22;12616;52.470;13.436;2023-03-14T09:00:12;12.30;1.00
24436;DHT22;12616;52.470;13.436;2023-03-14T09:02:41;12.40;1.00
24436;DHT22;12616;52.470;13.436;2023-03-14T09:05:08;12.30;1.00
24436;DHT22;12616;52.470;13.436;2023-03-14T09:07:36;12.30;1.00
24436;DHT22;12616;52.470;13.436;2023-03-14T09:10:03;12.40;1.00
24436;DHT22;12616;52.470;13.436;2023-03-14T09:12:30;12.70;1.00
24436;DHT22;12616;52.470;13.436;2023-03-14T09:14:56;12.60;1.00
24436;DHT22;12616;52.470;13.436;2023-03-14T09:17:25;12.70;1.00
24436;DHT22;12616;52.470;13.436;2023-03-14T09:19:52;12.80;99.90
24436;DHT22;12616;52.470;13.436;2023-03-14T09:22:18;12.80;99.90
24436;DHT22;12616;52.470;13.436;2023-03-14T09:24:46;12.90;99.90
24436;DHT22;12616;52.470;13.436;2023-03-14T09:27:13;12.90;99.90
24436;DHT22;12616;52.470;13.436;2023-03-14T09:29:42;12.80;99.90
24436;DHT22;12616;52.470;13.436;2023-03-14T09:32:09;13.10;1.00
24436;DHT22;12616;52.470;13.436;2023-03-14T09:34:37;12.90;99.90
24436;DHT22;12616;52.470;13.436;2023-03-14T09:37:04;13.00;99.90
24436;DHT22;12616;52.470;13.436;2023-03-14T09:39:31;13.10;99.90
24436;DHT22;12616;52.470;13.436;2023-03-14T09:42:02;13.10;99.90
24436;DHT22;12616;52.470;13.436;2023-03-14T09:44:31;13.20;99.90
24436;DHT22;12616;52.470;13.436;2023-03-14T09:47:03;13.40;99.90
24436;DHT22;12616;52.470;13.436;2023-03-14T09:49:33;13.50;52.80
24436;DHT22;12616;52.470;13.436;2023-03-14T09:52:06;13.50;50.30
24436;DHT22;12616;52.470;13.436;2023-03-14T09:54:39;13.50;42.90
24436;DHT22;12616;52.470;13.436;2023-03-14T09:57:12;13.40;33.50
24436;DHT22;12616;52.470;13.436;2023-03-14T09:59:43;13.40;47.50
24436;DHT22;12616;52.470;13.436;2023-03-14T10:02:17;13.40;99.60
24436;DHT22;12616;52.470;13.436;2023-03-14T10:04:45;13.30;33.20
24436;DHT22;12616;52.470;13.436;2023-03-14T10:07:16;13.30;40.40
24436;DHT22;12616;52.470;13.436;2023-03-14T10:09:45;13.20;5.20
24436;DHT22;12616;52.470;13.436;2023-03-14T10:12:14;13.30;99.60
24436;DHT22;12616;52.470;13.436;2023-03-14T10:14:47;13.20;13.20
24436;DHT22;12616;52.470;13.436;2023-03-14T10:17:16;13.20;6.90
24436;DHT22;12616;52.470;13.436;2023-03-14T10:19:54;13.20;5.30
24436;DHT22;12616;52.470;13.436;2023-03-14T10:22:24;13.20;1.00
24436;DHT22;12616;52.470;13.436;2023-03-14T10:24:53;13.20;3.00
24436;DHT22;12616;52.470;13.436;2023-03-14T10:27:21;13.30;1.00
24436;DHT22;12616;52.470;13.436;2023-03-14T10:29:54;13.40;61.10
24436;DHT22;12616;52.470;13.436;2023-03-14T10:32:23;13.30;1.00
24436;DHT22;12616;52.470;13.436;2023-03-14T10:35:22;13.20;1.00
24436;DHT22;12616;52.470;13.436;2023-03-14T10:37:56;13.20;1.00
24436;DHT22;12616;52.470;13.436;2023-03-14T10:40:27;13.20;1.00
24436;DHT22;12616;52.470;13.436;2023-03-14T10:42:55;13.00;99.90
24436;DHT22;12616;52.470;13.436;2023-03-14T10:45:30;13.20;1.00
24436;DHT22;12616;52.470;13.436;2023-03-14T10:47:59;13.20;1.00
24436;DHT22;12616;52.470;13.436;2023-03-14T10:50:28;13.10;1.00
24436;DHT22;12616;52.470;13.436;2023-03-14T10:52:57;13.20;99.90
24436;DHT22;12616;52.470;13.436;2023-03-14T10:55:24;13.10;1.00
24436;DHT22;12616;52.470;13.436;2023-03-14T10:57:52;13.10;20.40
24436;DHT22;12616;52.470;13.436;2023-03-14T11:00:21;13.10;1.00
24436;DHT22;12616;52.470;13.436;2023-03-14T11:03:05;12.80;99.90
24436;DHT22;12616;52.470;13.436;2023-03-14T11:05:41;13.10;17.80
24436;DHT22;12616;52.470;13.436;2023-03-14T11:08:14;13.10;1.00
24436;DHT22;12616;52.470;13.436;2023-03-14T11:10:47;13.20;1.00
24436;DHT22;12616;52.470;13.436;2023-03-14T11:13:18;13.20;1.00
24436;DHT22;12616;52.470;13.436;2023-03-14T11:15:57;13.30;1.00
24436;DHT22;12616;52.470;13.436;2023-03-14T11:18:43;13.40;1.00
24436;DHT22;12616;52.470;13.436;2023-03-14T11:21:13;13.40;1.00
24436;DHT22;12616;52.470;13.436;2023-03-14T11:23:50;13.40;1.00
24436;DHT22;12616;52.470;13.436;2023-03-14T11:26:29;13.30;1.00
24436;DHT22;12616;52.470;13.436;2023-03-14T11:29:08;13.30;2.80
24436;DHT22;12616;52.470;13.436;2023-03-14T11:31:40;13.40;18.50
24436;DHT22;12616;52.470;13.436;2023-03-14T11:34:15;13.40;3.50
24436;DHT22;12616;52.470;13.436;2023-03-14T11:36:48;13.50;1.00
24436;DHT22;12616;52.470;13.436;2023-03-14T11:39:20;13.50;1.00
24436;DHT22;12616;52.470;13.436;2023-03-14T11:41:50;13.50;1.00
24436;DHT22;12616;52.470;13.436;2023-03-14T11:44:19;13.50;19.40
24436;DHT22;12616;52.470;13.436;2023-03-14T11:46:50;13.40;57.30
24436;DHT22;12616;52.470;13.436;2023-03-14T11:49:29;13.40;99.90
24436;DHT22;12616;52.470;13.436;2023-03-14T11:52:01;13.40;99.90
24436;DHT22;12616;52.470;13.436;2023-03-14T11:54:36;13.40;99.90
24436;DHT22;12616;52.470;13.436;2023-03-14T11:57:09;13.40;99.90
24436;DHT22;12616;52.470;13.436;2023-03-14T11:59:45;13.50;99.90
24436;DHT22;12616;52.470;13.436;2023-03-14T12:02:19;13.50;99.90
24436;DHT22;12616;52.470;13.436;2023-03-14T12:04:54;13.40;99.90
24436;DHT22;12616;52.470;13.436;2023-03-14T12:07:29;13.30;1.00
24436;DHT22;12616;52.470;13.436;2023-03-14T12:10:02;13.30;1.00
24436;DHT22;12616;52.470;13.436;2023-03-14T12:12:30;13.20;1.00
24436;DHT22;12616;52.470;13.436;2023-03-14T12:14:58;13.10;1.00
24436;DHT22;12616;52.470;13.436;2023-03-14T12:17:33;13.20;1.00
24436;DHT22;12616;52.470;13.436;2023-03-14T12:20:04;13.20;1.00
24436;DHT22;12616;52.470;13.436;2023-03-14T12:22:34;13.20;1.00
24436;DHT22;12616;52.470;13.436;2023-03-14T12:25:15;13.40;1.00
24436;DHT22;12616;52.470;13.436;2023-03-14T12:27:47;13.40;1.00
24436;DHT22;12616;52.470;13.436;2023-03-14T12:30:24;13.40;1.00
24436;DHT22;12616;52.470;13.436;2023-03-14T12:33:19;13.20;1.00
24436;DHT22;12616;52.470;13.436;2023-03-14T12:35:47;13.40;1.00
24436;DHT22;12616;52.470;13.436;2023-03-14T12:38:17;13.20;1.00
24436;DHT22;12616;52.470;13.436;2023-03-14T12:40:56;13.10;1.00
24436;DHT22;12616;52.470;13.436;2023-03-14T12:43:27;13.10;99.90
24436;DHT22;12616;52.470;13.436;2023-03-14T12:46:19;13.00;1.00
24436;DHT22;12616;52.470;13.436;2023-03-14T12:48:47;12.90;99.90
24436;DHT22;12616;52.470;13.436;2023-03-14T12:51:16;12.80;1.00
24436;DHT22;12616;52.470;13.436;2023-03-14T12:56:59;12.80;1.00
24436;DHT22;12616;52.470;13.436;2023-03-14T12:59:34;13.00;1.00
24436;DHT22;12616;52.470;13.436;2023-03-14T13:02:11;12.80;1.00
24436;DHT22;12616;52.470;13.436;2023-03-14T13:04:45;12.90;99.90
24436;DHT22;12616;52.470;13.436;2023-03-14T13:07:13;12.90;1.00
24436;DHT22;12616;52.470;13.436;2023-03-14T13:09:55;12.90;99.90
24436;DHT22;12616;52.470;13.436;2023-03-14T13:12:32;12.90;99.90
24436;DHT22;12616;52.470;13.436;2023-03-14T13:15:01;12.80;58.30
24436;DHT22;12616;52.470;13.436;2023-03-14T13:17:32;12.60;1.00
24436;DHT22;12616;52.470;13.436;2023-03-14T13:20:03;12.30;1.00
24436;DHT22;12616;52.470;13.436;2023-03-14T13:22:33;12.40;1.00
24436;DHT22;12616;52.470;13.436;2023-03-14T13:25:04;12.10;1.00
24436;DHT22;12616;52.470;13.436;2023-03-14T13:27:34;12.00;1.00
24436;DHT22;12616;52.470;13.436;2023-03-14T13:30:13;11.80;1.00
24436;DHT22;12616;52.470;13.436;2023-03-14T13:32:42;11.70;9.80
24436;DHT22;12616;52.470;13.436;2023-03-14T13:35:19;11.70;1.00
24436;DHT22;12616;52.470;13.436;2023-03-14T13:37:46;11.70;99.90
24436;DHT22;12616;52.470;13.436;2023-03-14T13:40:24;11.80;97.60
24436;DHT22;12616;52.470;13.436;2023-03-14T13:43:02;12.10;99.90
24436;DHT22;12616;52.470;13.436;2023-03-14T13:45:29;12.60;1.00
24436;DHT22;12616;52.470;13.436;2023-03-14T13:47:56;12.60;99.90
24436;DHT22;12616;52.470;13.436;2023-03-14T13:50:23;13.10;1.00
24436;DHT22;12616;52.470;13.436;2023-03-14T13:52:55;13.40;1.00
24436;DHT22;12616;52.470;13.436;2023-03-14T13:55:22;13.00;1.00
24436;DHT22;12616;52.470;13.436;2023-03-14T13:57:53;12.90;1.00
24436;DHT22;12616;52.470;13.436;2023-03-14T14:00:24;13.00;1.00
24436;DHT22;12616;52.470;13.436;2023-03-14T14:02:53;12.80;1.00
24436;DHT22;12616;52.470;13.436;2023-03-14T14:05:21;12.70;12.40
24436;DHT22;12616;52.470;13.436;2023-03-14T14:07:49;12.80;99.90
24436;DHT22;12616;52.470;13.436;2023-03-14T14:10:16;12.80;99.90
24436;DHT22;12616;52.470;13.436;2023-03-14T14:12:46;12.90;99.90
24436;DHT22;12616;52.470;13.436;2023-03-14T14:15:18;12.80;99.90
24436;DHT22;12616;52.470;13.436;2023-03-14T14:17:50;12.90;99.90
24436;DHT22;12616;52.470;13.436;2023-03-14T14:20:22;12.90;99.90
24436;DHT22;12616;52.470;13.436;2023-03-14T14:22:50;12.90;99.90
24436;DHT22;12616;52.470;13.436;2023-03-14T14:25:19;13.10;99.90
24436;DHT22;12616;52.470;13.436;2023-03-14T14:27:49;13.20;93.20
24436;DHT22;12616;52.470;13.436;2023-03-14T14:30:29;13.30;1.00
24436;DHT22;12616;52.470;13.436;2023-03-14T14:33:16;13.30;1.00
24436;DHT22;12616;52.470;13.436;2023-03-14T14:35:51;13.30;1.00
24436;DHT22;12616;52.470;13.436;2023-03-14T14:38:18;13.20;1.00
24436;DHT22;12616;52.470;13.436;2023-03-14T14:40:49;13.30;99.90
24436;DHT22;12616;52.470;13.436;2023-03-14T14:43:18;13.30;99.90
24436;DHT22;12616;52.470;13.436;2023-03-14T14:45:49;13.50;99.90
24436;DHT22;12616;52.470;13.436;2023-03-14T14:48:20;13.60;99.90
24436;DHT22;12616;52.470;13.436;2023-03-14T14:50:56;13.60;99.90
24436;DHT22;12616;52.470;13.436;2023-03-14T14:53:28;13.70;99.90
24436;DHT22;12616;52.470;13.436;2023-03-14T14:55:57;13.70;99.90
24436;DHT22;12616;52.470;13.436;2023-03-14T14:58:26;13.70;99.90
24436;DHT22;12616;52.470;13.436;2023-03-14T15:00:56;13.60;99.90
24436;DHT22;12616;52.470;13.436;2023-03-14T15:03:29;13.20;1.00
24436;DHT22;12616;52.470;13.436;2023-03-14T15:05:56;13.40;99.90
24436;DHT22;12616;52.470;13.436;2023-03-14T15:08:24;13.30;1.00
24436;DHT22;12616;52.470;13.436;2023-03-14T15:10:52;13.30;99.90
24436;DHT22;12616;52.470;13.436;2023-03-14T15:13:18;13.10;1.00
24436;DHT22;12616;52.470;13.436;2023-03-14T15:15:45;13.20;99.90
24436;DHT22;12616;52.470;13.436;2023-03-14T15:18:14;13.20;99.90
24436;DHT22;12616;52.470;13.436;2023-03-14T15:20:43;13.10;99.90
24436;DHT22;12616;52.470;13.436;2023-03-14T15:23:11;13.10;99.90
24436;DHT22;12616;52.470;13.436;2023-03-14T15:25:38;12.40;1.00
24436;DHT22;12616;52.470;13.436;2023-03-14T15:28:13;10.20;99.90
24436;DHT22;12616;52.470;13.436;2023-03-14T15:30:40;8.50;99.90
24436;DHT22;12616;52.470;13.436;2023-03-14T15:33:07;8.20;99.90
24436;DHT22;12616;52.470;13.436;2023-03-14T15:35:34;7.50;99.90
24436;DHT22;12616;52.470;13.436;2023-03-14T15:38:03;6.80;99.90
24436;DHT22;12616;52.470;13.436;2023-03-14T15:40:30;6.40;99.90
24436;DHT22;12616;52.470;13.436;2023-03-14T15:42:57;6.30;1.00